createdAt,value
2024-02-08T00:00:01.207Z,100857.66
2024-02-08T00:02:32.173Z,100859.19
2024-02-08T00:05:03.658Z,100855.70
2024-02-08T00:07:35.144Z,100854.80
2024-02-08T00:10:10.294Z,100854.18
2024-02-08T00:12:42.982Z,100854.82
2024-02-08T00:15:17.291Z,100852.02
2024-02-08T00:17:49.252Z,100849.81
2024-02-08T00:20:20.879Z,100849.92
2024-02-08T00:22:53.783Z,100852.44
2024-02-08T00:25:25.660Z,100847.25
2024-02-08T00:27:57.162Z,100843.23
2024-02-08T00:30:28.459Z,100844.52
2024-02-08T00:32:59.779Z,100843.05
2024-02-08T00:35:30.945Z,100840.00
2024-02-08T00:38:02.425Z,100839.10
2024-02-08T00:40:33.486Z,100836.14
2024-02-08T00:43:07.967Z,100829.96
2024-02-08T00:45:39.404Z,100824.77
2024-02-08T00:48:11.302Z,100827.03
2024-02-08T00:50:42.293Z,100823.00
2024-02-08T00:53:13.344Z,100821.31
2024-02-08T00:55:45.382Z,100821.86
2024-02-08T00:58:17.368Z,100824.20
2024-02-08T01:00:49.135Z,100826.37
2024-02-08T01:03:20.323Z,100818.17
2024-02-08T01:05:52.719Z,100815.55
2024-02-08T01:08:24.168Z,100806.96
2024-02-08T01:10:55.249Z,100810.81
2024-02-08T01:13:28.397Z,100808.40
2024-02-08T01:15:59.557Z,100806.63
2024-02-08T01:18:31.711Z,100809.12
2024-02-08T01:21:02.757Z,100803.36
2024-02-08T01:23:34.294Z,100799.91
2024-02-08T01:26:05.706Z,100796.29
2024-02-08T01:28:37.157Z,100795.99
2024-02-08T01:31:08.397Z,100793.45
2024-02-08T01:33:39.825Z,100798.97
2024-02-08T01:36:11.789Z,100801.58
2024-02-08T01:38:43.452Z,100800.71
2024-02-08T01:41:15.109Z,100797.79
2024-02-08T01:43:46.110Z,100797.02
2024-02-08T01:46:17.862Z,100785.86
2024-02-08T01:48:50.528Z,100786.09
2024-02-08T01:51:23.834Z,100778.21
2024-02-08T01:53:55.651Z,100777.77
2024-02-08T01:56:27.136Z,100772.73
2024-02-08T01:58:59.472Z,100768.82
2024-02-08T02:01:31.103Z,100762.95
2024-02-08T02:04:02.627Z,100763.23
2024-02-08T02:06:33.828Z,100757.71
2024-02-08T02:09:05.283Z,100761.27
2024-02-08T02:11:42.821Z,100762.16
2024-02-08T02:14:16.632Z,100757.70
2024-02-08T02:16:52.469Z,100758.88
2024-02-08T02:19:25.001Z,100757.31
2024-02-08T02:21:55.938Z,100751.73
2024-02-08T02:24:27.165Z,100746.09
2024-02-08T02:26:59.199Z,100746.45
2024-02-08T02:29:30.379Z,100743.64
2024-02-08T02:32:02.208Z,100737.52
2024-02-08T02:34:34.794Z,100734.10
2024-02-08T02:37:06.568Z,100729.41
2024-02-08T02:39:38.368Z,100728.45
2024-02-08T02:42:10.414Z,100723.65
2024-02-08T02:44:41.756Z,100722.41
2024-02-08T02:47:12.774Z,100722.32
2024-02-08T02:49:44.125Z,100714.69
2024-02-08T02:52:15.251Z,100708.11
2024-02-08T02:54:46.279Z,100709.48
2024-02-08T02:57:17.800Z,100710.42
2024-02-08T02:59:48.892Z,100715.72
2024-02-08T03:02:29.774Z,100710.75
2024-02-08T03:05:01.348Z,100706.61
2024-02-08T03:07:32.996Z,100706.30
2024-02-08T03:10:04.687Z,100707.83
2024-02-08T03:12:35.624Z,100705.39
2024-02-08T03:15:10.310Z,100701.55
2024-02-08T03:17:41.291Z,100695.33
2024-02-08T03:20:18.523Z,100694.73
2024-02-08T03:22:50.721Z,100693.09
2024-02-08T03:25:23.093Z,100699.67
2024-02-08T03:27:54.986Z,100697.98
2024-02-08T03:30:32.774Z,100693.69
2024-02-08T03:33:13.451Z,100696.06
2024-02-08T03:35:47.777Z,100695.58
2024-02-08T03:38:20.760Z,100690.95
2024-02-08T03:40:51.952Z,100691.91
2024-02-08T03:43:25.235Z,100692.25
2024-02-08T03:45:57.549Z,100689.05
2024-02-08T03:48:30.469Z,100687.42
2024-02-08T03:51:02.576Z,100688.60
2024-02-08T03:53:38.552Z,100687.57
2024-02-08T03:56:10.563Z,100688.17
2024-02-08T03:58:42.308Z,100695.79
2024-02-08T04:01:15.088Z,100698.30
2024-02-08T04:03:55.194Z,100698.02
2024-02-08T04:06:38.795Z,100697.38
2024-02-08T04:09:18.315Z,100692.41
2024-02-08T04:12:03.587Z,100688.43
2024-02-08T04:14:48.296Z,100685.36
2024-02-08T04:17:33.149Z,100686.75
2024-02-08T04:20:18.362Z,100686.95
2024-02-08T04:23:03.370Z,100688.88
2024-02-08T04:25:48.290Z,100688.38
2024-02-08T04:28:33.428Z,100689.15
2024-02-08T04:31:24.133Z,100691.72
2024-02-08T04:34:12.248Z,100692.95
2024-02-08T04:36:57.211Z,100692.11
2024-02-08T04:39:48.031Z,100691.00
2024-02-08T04:42:33.173Z,100687.42
2024-02-08T04:45:18.424Z,100679.17
2024-02-08T04:48:03.922Z,100682.35
2024-02-08T04:50:49.358Z,100684.08
2024-02-08T04:53:34.265Z,100682.42
2024-02-08T04:56:09.962Z,100685.94
2024-02-08T04:59:06.787Z,100686.23
2024-02-08T05:01:39.854Z,100684.00
2024-02-08T05:04:11.301Z,100685.30
2024-02-08T05:06:45.421Z,100680.97
2024-02-08T05:09:20.928Z,100681.38
2024-02-08T05:11:53.505Z,100678.81
2024-02-08T05:14:24.930Z,100673.41
2024-02-08T05:16:57.148Z,100669.15
2024-02-08T05:19:28.835Z,100673.54
2024-02-08T05:22:01.595Z,100678.06
2024-02-08T05:24:33.074Z,100683.67
2024-02-08T05:27:04.417Z,100680.68
2024-02-08T05:29:40.798Z,100681.57
2024-02-08T05:32:12.531Z,100676.19
2024-02-08T05:34:45.456Z,100675.03
2024-02-08T05:37:16.685Z,100676.25
2024-02-08T05:39:48.418Z,100678.38
2024-02-08T05:42:22.820Z,100679.45
2024-02-08T05:44:55.225Z,100683.61
2024-02-08T05:47:27.789Z,100685.86
2024-02-08T05:49:58.977Z,100686.92
2024-02-08T05:52:34.468Z,100686.07
2024-02-08T05:55:06.235Z,100688.95
2024-02-08T05:57:37.233Z,100695.12
2024-02-08T06:00:15.472Z,100690.89
2024-02-08T06:02:47.666Z,100685.04
2024-02-08T06:05:20.195Z,100681.09
2024-02-08T06:07:58.269Z,100680.48
2024-02-08T06:10:43.426Z,100681.67
2024-02-08T06:13:18.764Z,100676.77
2024-02-08T06:15:54.561Z,100683.66
2024-02-08T06:18:32.296Z,100683.52
2024-02-08T06:21:14.568Z,100688.86
2024-02-08T06:23:46.808Z,100699.55
2024-02-08T06:26:30.539Z,100701.85
2024-02-08T06:29:07.091Z,100708.39
2024-02-08T06:31:42.591Z,100712.02
2024-02-08T06:34:30.011Z,100711.11
2024-02-08T06:37:18.155Z,100713.52
2024-02-08T06:39:58.293Z,100714.65
2024-02-08T06:42:45.684Z,100720.11
2024-02-08T06:45:36.911Z,100727.34
2024-02-08T06:48:32.211Z,100729.21
2024-02-08T06:51:17.434Z,100729.23
2024-02-08T06:54:05.847Z,100727.82
2024-02-08T06:56:51.046Z,100721.73
2024-02-08T06:59:36.019Z,100732.24
2024-02-08T07:02:21.317Z,100739.54
2024-02-08T07:05:08.703Z,100740.24
2024-02-08T07:07:55.911Z,100732.36
2024-02-08T07:10:43.991Z,100731.98
2024-02-08T07:13:29.558Z,100729.98
2024-02-08T07:16:26.848Z,100727.70
2024-02-08T07:19:12.061Z,100727.38
2024-02-08T07:21:57.498Z,100731.58
2024-02-08T07:24:42.945Z,100733.86
2024-02-08T07:27:28.384Z,100743.53
2024-02-08T07:30:13.530Z,100752.77
2024-02-08T07:32:59.789Z,100760.88
2024-02-08T07:35:44.872Z,100762.41
2024-02-08T07:38:17.043Z,100770.71
2024-02-08T07:40:48.439Z,100776.88
2024-02-08T07:43:21.439Z,100779.66
2024-02-08T07:45:56.829Z,100779.89
2024-02-08T07:48:41.198Z,100777.56
2024-02-08T07:51:17.024Z,100773.85
2024-02-08T07:53:53.381Z,100769.53
2024-02-08T07:56:38.780Z,100766.22
2024-02-08T07:59:17.410Z,100775.23
2024-02-08T08:01:52.451Z,100776.42
2024-02-08T08:04:40.847Z,100764.52
2024-02-08T08:07:13.857Z,100769.38
2024-02-08T08:09:48.233Z,100765.95
2024-02-08T08:12:23.637Z,100769.37
2024-02-08T08:15:15.084Z,100770.34
2024-02-08T08:18:01.773Z,100766.33
2024-02-08T08:20:47.043Z,100770.61
2024-02-08T08:23:28.328Z,100767.46
2024-02-08T08:26:22.748Z,100769.31
2024-02-08T08:29:03.894Z,100768.48
2024-02-08T08:31:47.700Z,100763.38
2024-02-08T08:34:32.946Z,100759.33
2024-02-08T08:37:27.792Z,100766.11
2024-02-08T08:40:18.875Z,100775.02
2024-02-08T08:42:51.792Z,100781.52
2024-02-08T08:45:23.817Z,100786.27
2024-02-08T08:48:01.907Z,100784.00
2024-02-08T08:50:33.258Z,100784.25
2024-02-08T08:53:18.204Z,100777.43
2024-02-08T08:55:51.786Z,100769.73
2024-02-08T08:58:28.885Z,100764.83
2024-02-08T09:01:13.304Z,100776.30
2024-02-08T09:03:45.532Z,100781.35
2024-02-08T09:06:18.265Z,100782.57
2024-02-08T09:08:56.659Z,100782.92
2024-02-08T09:11:29.130Z,100782.45
2024-02-08T09:14:11.522Z,100780.18
2024-02-08T09:16:53.752Z,100781.32
2024-02-08T09:19:29.265Z,100774.79
2024-02-08T09:22:01.896Z,100771.48
2024-02-08T09:24:43.722Z,100768.29
2024-02-08T09:27:18.309Z,100770.87
2024-02-08T09:29:58.241Z,100779.55
2024-02-08T09:32:43.485Z,100780.75
2024-02-08T09:35:16.654Z,100777.09
2024-02-08T09:37:48.652Z,100776.08
2024-02-08T09:40:22.422Z,100773.23
2024-02-08T09:42:59.110Z,100770.59
2024-02-08T09:45:45.057Z,100779.17
2024-02-08T09:48:27.273Z,100784.07
2024-02-08T09:51:12.679Z,100787.43
2024-02-08T09:53:53.040Z,100791.50
2024-02-08T09:56:39.352Z,100788.60
2024-02-08T09:59:20.028Z,100790.70
2024-02-08T10:01:54.439Z,100790.91
2024-02-08T10:04:32.435Z,100800.59
2024-02-08T10:07:08.313Z,100808.15
2024-02-08T10:09:42.293Z,100812.45
2024-02-08T10:12:20.356Z,100806.95
2024-02-08T10:15:01.700Z,100807.08
2024-02-08T10:17:42.829Z,100812.20
2024-02-08T10:20:34.635Z,100813.70
2024-02-08T10:23:31.493Z,100814.94
2024-02-08T10:26:17.485Z,100816.48
2024-02-08T10:28:55.968Z,100819.92
2024-02-08T10:31:27.590Z,100827.53
2024-02-08T10:34:12.564Z,100829.08
2024-02-08T10:36:46.764Z,100813.56
2024-02-08T10:39:26.929Z,100802.44
2024-02-08T10:42:01.463Z,100800.85
2024-02-08T10:44:36.342Z,100790.90
2024-02-08T10:47:09.244Z,100786.14
2024-02-08T10:49:47.837Z,100786.94
2024-02-08T10:52:23.049Z,100781.42
2024-02-08T10:54:57.840Z,100782.68
2024-02-08T10:58:04.683Z,100776.90
2024-02-08T11:00:50.721Z,100769.05
2024-02-08T11:03:35.240Z,100757.90
2024-02-08T11:06:29.494Z,100761.79
2024-02-08T11:09:19.882Z,100764.88
2024-02-08T11:12:00.382Z,100760.57
2024-02-08T11:14:42.644Z,100752.92
2024-02-08T11:17:21.750Z,100739.76
2024-02-08T11:19:58.474Z,100735.89
2024-02-08T11:22:44.116Z,100735.05
2024-02-08T11:25:34.865Z,100734.08
2024-02-08T11:28:25.595Z,100727.36
2024-02-08T11:30:58.717Z,100726.20
2024-02-08T11:33:43.801Z,100714.06
2024-02-08T11:36:18.040Z,100711.17
2024-02-08T11:38:59.462Z,100719.80
2024-02-08T11:41:34.043Z,100726.06
2024-02-08T11:44:07.266Z,100722.85
2024-02-08T11:46:46.570Z,100711.59
2024-02-08T11:49:33.861Z,100695.38
2024-02-08T11:52:12.408Z,100692.09
2024-02-08T11:54:44.514Z,100696.59
2024-02-08T11:57:21.964Z,100697.16
2024-02-08T11:59:56.510Z,100699.01
2024-02-08T12:02:28.827Z,100700.58
2024-02-08T12:05:01.202Z,100699.31
2024-02-08T12:07:32.775Z,100694.83
2024-02-08T12:10:10.911Z,100700.04
2024-02-08T12:12:42.789Z,100699.60
2024-02-08T12:15:16.974Z,100695.73
2024-02-08T12:17:53.105Z,100680.69
2024-02-08T12:20:25.491Z,100662.02
2024-02-08T12:22:59.712Z,100658.38
2024-02-08T12:25:30.875Z,100657.93
2024-02-08T12:28:06.184Z,100653.92
2024-02-08T12:30:41.916Z,100640.26
2024-02-08T12:33:14.271Z,100637.52
2024-02-08T12:35:46.237Z,100641.23
2024-02-08T12:38:19.426Z,100642.73
2024-02-08T12:40:51.444Z,100639.33
2024-02-08T12:43:23.130Z,100643.22
2024-02-08T12:46:00.442Z,100637.86
2024-02-08T12:48:31.692Z,100643.70
2024-02-08T12:51:04.958Z,100651.50
2024-02-08T12:53:36.438Z,100654.77
2024-02-08T12:56:14.793Z,100647.83
2024-02-08T12:58:48.337Z,100631.73
2024-02-08T13:01:20.346Z,100636.02
2024-02-08T13:03:56.706Z,100630.31
2024-02-08T13:06:28.411Z,100622.95
2024-02-08T13:09:27.514Z,100627.80
2024-02-08T13:12:19.743Z,100640.46
2024-02-08T13:15:07.080Z,100642.60
2024-02-08T13:17:39.380Z,100646.16
2024-02-08T13:20:14.432Z,100641.80
2024-02-08T13:22:47.433Z,100630.10
2024-02-08T13:25:21.940Z,100622.81
2024-02-08T13:27:53.379Z,100620.27
2024-02-08T13:30:25.008Z,100622.16
2024-02-08T13:32:57.357Z,100612.52
2024-02-08T13:35:30.514Z,100608.70
2024-02-08T13:38:02.966Z,100610.57
2024-02-08T13:40:34.426Z,100617.48
2024-02-08T13:43:06.964Z,100614.81
2024-02-08T13:45:38.314Z,100613.94
2024-02-08T13:48:14.184Z,100616.80
2024-02-08T13:50:48.148Z,100612.10
2024-02-08T13:53:19.504Z,100615.77
2024-02-08T13:55:55.645Z,100617.27
2024-02-08T13:58:30.112Z,100610.79
2024-02-08T14:01:02.673Z,100612.91
2024-02-08T14:03:36.234Z,100621.02
2024-02-08T14:06:11.391Z,100622.94
2024-02-08T14:08:48.243Z,100621.91
2024-02-08T14:11:21.622Z,100612.11
2024-02-08T14:13:52.980Z,100606.23
2024-02-08T14:16:24.061Z,100595.30
2024-02-08T14:18:56.159Z,100588.09
2024-02-08T14:21:29.282Z,100582.64
2024-02-08T14:24:03.592Z,100582.45
2024-02-08T14:26:41.791Z,100582.31
2024-02-08T14:29:14.398Z,100578.98
2024-02-08T14:31:46.462Z,100575.28
2024-02-08T14:34:17.419Z,100573.00
2024-02-08T14:36:51.442Z,100575.73
2024-02-08T14:39:33.872Z,100574.91
2024-02-08T14:42:12.249Z,100572.01
2024-02-08T14:44:45.424Z,100564.44
2024-02-08T14:47:23.537Z,100572.73
2024-02-08T14:50:01.036Z,100572.45
2024-02-08T14:52:38.083Z,100573.67
2024-02-08T14:55:21.685Z,100568.60
2024-02-08T14:58:00.465Z,100572.39
2024-02-08T15:00:46.257Z,100569.02
2024-02-08T15:03:29.421Z,100564.23
2024-02-08T15:06:06.954Z,100553.74
2024-02-08T15:08:56.345Z,100548.02
2024-02-08T15:11:58.827Z,100539.84
2024-02-08T15:14:37.368Z,100534.24
2024-02-08T15:17:11.905Z,100533.30
2024-02-08T15:19:48.242Z,100534.26
2024-02-08T15:22:40.978Z,100531.20
2024-02-08T15:25:17.944Z,100524.52
2024-02-08T15:27:55.218Z,100522.63
2024-02-08T15:30:37.918Z,100521.59
2024-02-08T15:33:30.338Z,100521.45
2024-02-08T15:36:11.760Z,100524.58
2024-02-08T15:39:02.216Z,100524.48
2024-02-08T15:41:52.181Z,100515.24
2024-02-08T15:44:36.736Z,100505.17
2024-02-08T15:47:13.839Z,100505.22
2024-02-08T15:49:46.008Z,100505.91
2024-02-08T15:52:17.886Z,100502.40
2024-02-08T15:54:56.633Z,100503.66
2024-02-08T15:57:31.135Z,100509.13
2024-02-08T16:00:11.696Z,100508.74
2024-02-08T16:02:44.693Z,100497.06
2024-02-08T16:05:16.592Z,100494.96
2024-02-08T16:07:58.523Z,100493.36
2024-02-08T16:10:33.284Z,100493.46
2024-02-08T16:13:07.492Z,100496.95
2024-02-08T16:15:57.712Z,100495.90
2024-02-08T16:18:31.402Z,100494.36
2024-02-08T16:21:06.911Z,100490.32
2024-02-08T16:23:48.012Z,100494.75
2024-02-08T16:26:20.956Z,100490.36
2024-02-08T16:28:52.221Z,100490.80
2024-02-08T16:31:26.625Z,100493.13
2024-02-08T16:34:09.465Z,100502.63
2024-02-08T16:36:49.890Z,100505.45
2024-02-08T16:39:31.530Z,100508.69
2024-02-08T16:42:02.962Z,100508.26
2024-02-08T16:44:43.049Z,100503.15
2024-02-08T16:47:29.171Z,100513.45
2024-02-08T16:50:08.617Z,100511.02
2024-02-08T16:52:47.684Z,100516.95
2024-02-08T16:55:24.146Z,100524.24
2024-02-08T16:58:07.965Z,100525.89
2024-02-08T17:00:41.152Z,100519.90
2024-02-08T17:03:32.483Z,100513.77
2024-02-08T17:06:13.194Z,100508.73
2024-02-08T17:09:02.559Z,100509.01
2024-02-08T17:11:36.887Z,100507.00
2024-02-08T17:14:09.854Z,100501.25
2024-02-08T17:16:47.396Z,100506.36
2024-02-08T17:19:30.944Z,100506.87
2024-02-08T17:22:20.067Z,100511.36
2024-02-08T17:25:05.161Z,100512.00
2024-02-08T17:27:57.893Z,100513.52
2024-02-08T17:30:53.352Z,100508.83
2024-02-08T17:33:25.037Z,100512.56
2024-02-08T17:35:57.158Z,100514.39
2024-02-08T17:38:36.547Z,100518.51
2024-02-08T17:41:15.512Z,100525.95
2024-02-08T17:43:57.011Z,100529.00
2024-02-08T17:46:31.909Z,100527.30
2024-02-08T17:49:05.759Z,100528.27
2024-02-08T17:51:43.596Z,100520.90
2024-02-08T17:54:23.118Z,100518.54
2024-02-08T17:57:03.002Z,100519.36
2024-02-08T17:59:34.771Z,100529.76
2024-02-08T18:02:07.585Z,100526.98
2024-02-08T18:04:43.296Z,100522.15
2024-02-08T18:07:14.658Z,100522.10
2024-02-08T18:09:55.182Z,100525.56
2024-02-08T18:12:36.052Z,100523.35
2024-02-08T18:15:14.504Z,100526.18
2024-02-08T18:17:46.959Z,100523.51
2024-02-08T18:20:25.007Z,100521.40
2024-02-08T18:22:58.521Z,100520.89
2024-02-08T18:25:33.730Z,100528.48
2024-02-08T18:28:13.561Z,100533.59
2024-02-08T18:30:46.862Z,100526.31
2024-02-08T18:33:20.536Z,100529.80
2024-02-08T18:35:55.000Z,100535.52
2024-02-08T18:38:28.045Z,100531.71
2024-02-08T18:41:05.597Z,100538.58
2024-02-08T18:43:37.650Z,100530.73
2024-02-08T18:46:17.190Z,100520.23
2024-02-08T18:48:57.607Z,100516.90
2024-02-08T18:51:32.125Z,100517.66
2024-02-08T18:54:04.313Z,100522.87
2024-02-08T18:56:42.603Z,100524.83
2024-02-08T18:59:24.525Z,100528.39
2024-02-08T19:02:05.813Z,100528.70
2024-02-08T19:04:39.148Z,100522.20
2024-02-08T19:07:12.982Z,100523.68
2024-02-08T19:09:47.671Z,100523.91
2024-02-08T19:12:19.455Z,100527.83
2024-02-08T19:14:53.862Z,100527.35
2024-02-08T19:17:26.935Z,100527.56
2024-02-08T19:20:02.278Z,100525.52
2024-02-08T19:22:38.663Z,100518.61
2024-02-08T19:25:12.622Z,100510.40
2024-02-08T19:27:46.717Z,100503.13
2024-02-08T19:30:25.144Z,100499.89
2024-02-08T19:33:02.564Z,100499.01
2024-02-08T19:35:35.536Z,100491.63
2024-02-08T19:38:06.920Z,100493.15
2024-02-08T19:40:44.963Z,100489.02
2024-02-08T19:43:20.520Z,100486.88
2024-02-08T19:45:56.223Z,100478.48
2024-02-08T19:48:30.847Z,100473.05
2024-02-08T19:51:13.903Z,100471.28
2024-02-08T19:53:48.304Z,100468.21
2024-02-08T19:56:20.212Z,100467.14
2024-02-08T19:58:53.871Z,100460.22
2024-02-08T20:01:32.707Z,100463.25
2024-02-08T20:04:15.285Z,100459.63
2024-02-08T20:06:51.517Z,100454.63
2024-02-08T20:09:26.490Z,100454.94
2024-02-08T20:12:02.158Z,100455.49
2024-02-08T20:14:35.615Z,100449.66
2024-02-08T20:17:10.945Z,100445.52
2024-02-08T20:19:46.571Z,100447.80
2024-02-08T20:22:18.722Z,100451.48
2024-02-08T20:24:50.324Z,100448.54
2024-02-08T20:27:21.540Z,100448.15
2024-02-08T20:29:53.715Z,100448.36
2024-02-08T20:32:30.085Z,100449.80
2024-02-08T20:35:02.319Z,100441.30
2024-02-08T20:37:35.794Z,100440.95
2024-02-08T20:40:12.979Z,100439.57
2024-02-08T20:42:48.863Z,100432.80
2024-02-08T20:45:23.222Z,100429.70
2024-02-08T20:47:54.991Z,100426.02
2024-02-08T20:50:27.470Z,100421.98
2024-02-08T20:52:59.301Z,100422.50
2024-02-08T20:55:36.798Z,100428.55
2024-02-08T20:58:13.466Z,100432.83
2024-02-08T21:00:46.073Z,100428.36
2024-02-08T21:03:18.507Z,100426.82
2024-02-08T21:05:51.394Z,100428.30
2024-02-08T21:08:25.096Z,100428.05
2024-02-08T21:11:00.106Z,100433.54
2024-02-08T21:13:33.345Z,100435.56
2024-02-08T21:16:05.924Z,100436.54
2024-02-08T21:18:39.878Z,100434.79
2024-02-08T21:21:14.905Z,100440.54
2024-02-08T21:23:46.754Z,100438.95
2024-02-08T21:26:22.733Z,100440.66
2024-02-08T21:28:55.485Z,100440.04
2024-02-08T21:31:28.221Z,100443.97
2024-02-08T21:34:00.597Z,100447.16
2024-02-08T21:36:31.949Z,100444.84
2024-02-08T21:39:19.603Z,100439.52
2024-02-08T21:41:51.048Z,100438.64
2024-02-08T21:44:22.641Z,100437.77
2024-02-08T21:46:54.057Z,100438.99
2024-02-08T21:49:27.514Z,100433.92
2024-02-08T21:51:58.785Z,100427.34
2024-02-08T21:54:30.059Z,100420.79
2024-02-08T21:57:05.221Z,100406.29
2024-02-08T21:59:38.114Z,100394.71
2024-02-08T22:02:10.344Z,100388.95
2024-02-08T22:04:41.721Z,100388.89
2024-02-08T22:07:15.091Z,100382.85
2024-02-08T22:09:47.156Z,100376.41
2024-02-08T22:12:18.298Z,100377.92
2024-02-08T22:14:50.400Z,100377.84
2024-02-08T22:17:21.512Z,100377.05
2024-02-08T22:19:53.144Z,100374.42
2024-02-08T22:22:24.614Z,100374.19
2024-02-08T22:24:58.665Z,100372.05
2024-02-08T22:27:29.989Z,100365.59
2024-02-08T22:30:01.302Z,100365.55
2024-02-08T22:32:36.886Z,100363.39
2024-02-08T22:35:09.098Z,100363.95
2024-02-08T22:37:43.734Z,100371.09
2024-02-08T22:40:15.893Z,100364.73
2024-02-08T22:42:47.708Z,100361.64
2024-02-08T22:45:22.443Z,100358.58
2024-02-08T22:47:54.621Z,100359.58
2024-02-08T22:50:26.458Z,100353.63
2024-02-08T22:52:57.879Z,100353.14
2024-02-08T22:55:29.963Z,100355.79
2024-02-08T22:58:02.238Z,100359.34
2024-02-08T23:00:49.395Z,100360.79
2024-02-08T23:03:25.589Z,100355.41
2024-02-08T23:05:58.669Z,100348.02
2024-02-08T23:08:30.108Z,100339.60
2024-02-08T23:11:01.070Z,100343.48
2024-02-08T23:13:33.717Z,100337.20
2024-02-08T23:16:09.357Z,100329.48
2024-02-08T23:18:41.075Z,100325.09
2024-02-08T23:21:12.120Z,100324.42
2024-02-08T23:23:43.195Z,100315.66
2024-02-08T23:26:14.444Z,100308.88
2024-02-08T23:28:45.642Z,100303.39
2024-02-08T23:31:18.820Z,100296.45
2024-02-08T23:33:50.590Z,100292.95
2024-02-08T23:36:21.825Z,100279.81
2024-02-08T23:38:53.051Z,100282.45
2024-02-08T23:41:27.176Z,100282.04
2024-02-08T23:43:59.077Z,100274.84
2024-02-08T23:46:30.261Z,100266.17
2024-02-08T23:49:02.869Z,100263.10
2024-02-08T23:51:34.134Z,100258.65
2024-02-08T23:54:06.557Z,100258.70
2024-02-08T23:56:40.817Z,100267.33
2024-02-08T23:59:12.875Z,100277.98
